Main page
METAR-TAF:

METAR-TAF

Airports :

Oelwein Municipal Airport

Oelwein, Iowa, United States

latitude: 42-40-51N, longitude: 091-58-28W, elevation: 1076 ft

Current weather observation

The report was made 22 minutes ago, at 15:35 UTC
Wind 12 mph from the North
Temperature 64°F
Humidity 100%
Pressure 29.87 in. Hg
Visibility: 3 miles
Broken clouds at a height of 3500 ft
Broken clouds at a height of 5000 ft
Overcast at a height of 6000 ft
mist

METAR: KOLZ 281535Z AUTO 35010KT 3SM BR BKN035 BKN050 OVC060 18/18 A2987 RMK A01

Time: 10:57 (15:57 UTC)


TAF: missing

Weather observations and forecasts of more than 4000 airports (METAR and TAF reports).

The available stations are represented by yellow and red dots on the map.

Hover mouse over dot to see the name of the station.

Then click to see weather observations and forecasts.

To change the map : click on the green buttons with a black cross to zoom in, on the green button with a dash to zoom out, or on the green arrows for adjacent maps.


METAR-TAF: